Rechercher aéroport 
image banner adimage banner adimage banner ad
image banner ad

CA87 - Sce Songs Mesa

Situé à San Clemente, United States

ICAO - CA87, IATA -

Données fournies par Airmate  

Information générale

Coordonnées: N33°22'46" W117°33'35"
Élévation : 100 feet MSL.
Variation magnétique : 14° East
Voir autres Aéroports à California

Données opérationnelles

Special qualification required
Heure actuelle UTC:
Heure actuelle locale:
METAR: KNFG 300055Z VRB06KT 10SM FEW100 24/16 A2986 RMK AO2 SLP112 T02390161 $
TAF: TAF KNFG 2921/3021 22010KT 9999 SCT080 QNH2985INS BECMG 3002/3004 VRB05KT 9999 FEW010 QNH2990INS TEMPO 3008/3014 3200 BR OVC005 FM301600 VRB05KT 9999 SCT015 QNH2993INS FM302000 22010G15KT 9999 SKC QNH2992INS T18/3013Z T28/3021Z
Voir NOTAMs / SUP AIP / TFR affectant cet aéroport [VIEW]
Fréquences de communication: [VIEW]

Pistes:

Coordonnées de l'aéroport

Adresse: San Clemente United States

Vue satellite de CA87